Latest Weather Observations for Bunbury

IDW60801

Issued at 11:03 am WST Thursday 29 September 2016 (issued every 30 minutes, with the page automatically refreshed every 10 minutes)

About weather observations | Map of weather stations | Latest weather observations for WA | Other Formats
Station Details ID: 009965 Name: BUNBURY Lat: -33.36 Lon: 115.64 Height: 5.2 m
Data from the previous 72 hours. | See also: Recent months at Bunbury
Date/Time
WST
Temp
°C
App
Temp
°C
Dew
Point
°C
Rel
Hum
%
Delta-T
°C
Wind Press
QNH
hPa
Press
MSL
hPa
Rain since
9am
mm
Dir  Spd
km/h
Gust
km/h
Spd
kts
Gust
kts
29/11:00am 14.7 12.4 5.8 55 4.2 N 7 13 4 7 1020.6 1020.5 0.0
29/10:30am 13.9 11.4 5.0 55 4.1 NW 7 13 4 7 1021.3 1021.3 0.0
29/10:00am 13.7 11.2 4.6 54 4.2 NNE 7 15 4 8 1021.7 1021.7 0.0
29/09:30am 12.8 10.3 4.5 57 3.8 NNE 7 11 4 6 1022.0 1022.0 0.0
29/09:00am 11.3 8.7 3.3 58 3.5 NE 6 9 3 5 1022.2 1022.2 0.0
29/08:30am 10.4 7.3 3.4 62 3.1 NNE 9 17 5 9 1022.2 1022.2 0.0
29/08:00am 9.5 6.3 3.3 65 2.7 NNE 9 13 5 7 1022.4 1022.4 0.0
29/07:30am 8.1 5.9 3.4 72 2.0 NE 4 7 2 4 1022.3 1022.3 0.0
29/07:00am 6.7 4.1 3.1 78 1.5 ENE 6 9 3 5 1022.5 1022.5 0.0
29/06:30am 4.8 2.0 2.3 84 1.0 ENE 6 9 3 5 1022.2 1022.2 0.0
29/06:00am 4.0 1.6 1.9 86 0.8 ENE 4 7 2 4 1022.2 1022.2 0.0
29/05:30am 4.1 1.2 2.5 89 0.6 E 7 13 4 7 1022.2 1022.2 0.0
29/05:00am 2.8 -0.6 1.6 92 0.5 E 9 11 5 6 1022.1 1022.1 0.0
29/04:30am 2.0 0.1 0.8 92 0.4 CALM 0 4 0 2 1022.1 1022.1 0.0
29/04:00am 2.0 0.1 0.7 91 0.5 CALM 0 0 0 0 1022.1 1022.1 0.0
29/03:30am 2.3 -0.3 1.0 91 0.5 E 4 4 2 2 1022.0 1022.0 0.0
29/03:00am 2.7 0.9 1.2 90 0.6 CALM 0 2 0 1 1022.3 1022.3 0.0
29/02:30am 3.0 0.9 1.4 89 0.6 ENE 2 2 1 1 1022.5 1022.5 0.0
29/02:00am 4.2 2.2 2.2 87 0.8 E 2 2 1 1 1022.5 1022.5 0.0
29/01:30am 4.6 1.7 2.5 86 0.8 ESE 7 9 4 5 1022.7 1022.7 0.0
29/01:00am 4.8 1.8 2.3 84 1.0 ESE 7 9 4 5 1023.2 1023.2 0.0
29/12:30am 5.4 2.7 2.8 83 1.1 SE 6 9 3 5 1023.6 1023.6 0.0
29/12:00am 6.1 3.5 3.3 82 1.2 SSE 6 7 3 4 1024.0 1024.0 0.0
 
Date/Time
WST
Temp
°C
App
Temp
°C
Dew
Point
°C
Rel
Hum
%
Delta-T
°C
Wind Press
QNH
hPa
Press
MSL
hPa
Rain since
9am
mm
Dir  Spd
km/h
Gust
km/h
Spd
kts
Gust
kts
28/11:30pm 6.3 3.7 3.1 80 1.3 SE 6 7 3 4 1024.0 1024.0 0.0
28/11:00pm 6.8 4.0 3.4 79 1.4 SSE 7 9 4 5 1024.0 1024.0 0.0
28/10:30pm 7.2 4.1 3.6 78 1.5 SSE 9 11 5 6 1024.1 1024.1 0.0
28/10:00pm 7.7 4.6 3.7 76 1.7 SSE 9 13 5 7 1024.2 1024.2 0.0
28/09:30pm 8.0 4.9 3.7 74 1.8 SSE 9 13 5 7 1024.2 1024.2 0.0
28/09:00pm 8.6 5.6 4.0 73 2.0 SSE 9 13 5 7 1024.3 1024.3 0.0
28/08:30pm 8.8 6.2 4.0 72 2.1 S 7 9 4 5 1024.3 1024.3 0.0
28/08:00pm 9.3 6.7 4.3 71 2.2 S 7 9 4 5 1024.2 1024.2 0.0
28/07:30pm 9.8 7.3 4.8 71 2.2 S 7 11 4 6 1024.1 1024.1 0.0
28/07:00pm 10.4 8.1 4.8 68 2.5 SSW 6 7 3 4 1023.8 1023.8 0.0
28/06:30pm 11.7 9.2 4.0 59 3.4 S 6 9 3 5 1023.5 1023.5 0.0
28/06:00pm 12.9 9.8 3.8 54 4.1 SSE 9 13 5 7 1023.2 1023.2 0.0
28/05:30pm 13.8 9.6 3.9 51 4.5 SSE 15 24 8 13 1023.0 1023.0 0.0
28/05:00pm 14.3 9.7 3.7 49 4.8 S 17 22 9 12 1022.7 1022.7 0.0
28/04:30pm 14.5 10.3 3.9 49 4.8 SSE 15 22 8 12 1022.6 1022.6 0.0
28/04:00pm 14.9 10.0 5.1 52 4.6 S 20 32 11 17 1022.6 1022.6 0.0
28/03:30pm 15.3 10.7 3.8 46 5.3 S 17 26 9 14 1022.9 1022.9 0.0
28/03:00pm 15.2 10.2 3.7 46 5.2 S 19 32 10 17 1022.8 1022.8 0.0
28/02:30pm 15.4 10.5 4.2 47 5.2 S 19 28 10 15 1022.9 1022.9 0.0
28/02:00pm 15.1 10.7 4.8 50 4.8 SSW 17 24 9 13 1023.2 1023.2 0.0
28/01:30pm 14.3 9.8 4.0 50 4.7 S 17 26 9 14 1023.2 1023.2 0.0
28/01:00pm 14.1 9.2 4.1 51 4.6 SSE 19 28 10 15 1023.5 1023.5 0.0
28/12:30pm 13.6 9.9 4.2 53 4.3 SSE 13 22 7 12 1023.6 1023.6 0.0
28/12:00pm 13.7 9.6 6.1 60 3.6 SSW 17 24 9 13 1023.8 1023.8 0.0
28/11:30am 12.3 8.1 5.5 63 3.2 SSE 17 24 9 13 1024.2 1024.2 0.0
28/11:00am 12.3 8.6 4.5 59 3.5 S 13 26 7 14 1023.9 1023.9 0.0
28/10:30am 11.6 8.5 5.7 67 2.7 S 11 19 6 10 1024.1 1024.1 0.0
28/10:00am 11.1 7.4 4.3 63 3.0 SSE 13 20 7 11 1024.3 1024.3 0.0
28/09:30am 12.4 8.9 5.6 63 3.2 SSE 13 22 7 12 1024.0 1024.0 0.0
28/09:00am 11.4 7.3 4.2 61 3.2 S 15 22 8 12 1023.8 1023.8 4.6
28/08:30am 10.5 6.8 4.4 66 2.7 S 13 19 7 10 1023.6 1023.6 4.6
28/08:00am 9.6 5.4 4.0 68 2.4 SSW 15 28 8 15 1023.1 1023.1 4.6
28/07:30am 8.2 5.8 4.2 76 1.7 SSW 6 9 3 5 1022.4 1022.4 4.6
28/07:00am 6.3 5.0 4.0 85 1.0 CALM 0 0 0 0 1021.9 1021.9 4.6
28/06:30am 5.1 2.8 2.6 84 1.0 SSE 4 6 2 3 1021.6 1021.6 4.6
28/06:00am 4.7 2.2 1.6 80 1.2 SSE 4 4 2 2 1021.1 1021.0 4.6
28/05:30am 6.1 3.7 2.4 77 1.5 SSW 4 9 2 5 1020.7 1020.6 4.6
28/05:00am 6.3 3.4 2.8 78 1.4 SSW 7 15 4 8 1020.3 1020.2 4.6
28/04:30am 4.6 2.1 1.8 82 1.1 S 4 7 2 4 1019.7 1019.6 4.6
28/04:00am 5.0 2.2 1.8 80 1.3 S 6 11 3 6 1019.5 1019.4 4.6
28/03:30am 4.1 1.6 1.8 85 0.9 SW 4 9 2 5 1019.1 1019.0 4.6
28/03:00am 4.7 2.3 1.9 82 1.1 S 4 6 2 3 1018.7 1018.6 4.6
28/02:30am 5.1 2.3 2.1 81 1.2 SSW 6 7 3 4 1018.6 1018.5 4.6
28/02:00am 5.8 3.0 1.9 76 1.6 SSE 6 11 3 6 1018.3 1018.2 4.6
28/01:30am 6.9 3.6 2.6 74 1.8 SSW 9 15 5 8 1018.4 1018.3 4.6
28/01:00am 7.7 2.9 2.8 71 2.0 SSW 17 22 9 12 1018.1 1018.0 4.6
28/12:30am 7.4 3.4 2.7 72 2.0 SW 13 19 7 10 1017.5 1017.4 4.6
28/12:00am 7.7 3.3 2.8 71 2.0 SSW 15 22 8 12 1017.2 1017.1 4.6
 
Date/Time
WST
Temp
°C
App
Temp
°C
Dew
Point
°C
Rel
Hum
%
Delta-T
°C
Wind Press
QNH
hPa
Press
MSL
hPa
Rain since
9am
mm
Dir  Spd
km/h
Gust
km/h
Spd
kts
Gust
kts
27/11:30pm 7.9 3.2 3.0 71 2.1 SSW 17 24 9 13 1017.1 1017.0 4.6
27/11:00pm 7.7 3.7 3.0 72 2.0 SSW 13 28 7 15 1016.9 1016.8 4.6
27/10:30pm 8.1 3.1 3.6 73 1.9 SSW 19 32 10 17 1016.9 1016.8 4.6
27/10:00pm 7.8 4.4 3.8 76 1.7 SSW 11 17 6 9 1016.5 1016.4 4.6
27/09:30pm 8.6 4.0 3.8 72 2.1 SSW 17 24 9 13 1016.2 1016.1 4.6
27/09:00pm 8.8 3.8 3.8 71 2.2 SSW 19 28 10 15 1016.1 1016.0 4.6
27/08:30pm 9.4 4.1 4.8 73 2.1 SSW 22 37 12 20 1015.8 1015.7 4.6
27/08:00pm 9.1 4.1 4.7 74 2.0 SSW 20 35 11 19 1015.2 1015.1 4.6
27/07:30pm 10.2 3.8 5.2 71 2.3 SW 28 50 15 27 1014.6 1014.5 4.6
27/07:07pm 10.6 4.3 5.6 71 2.3 SW 28 50 15 27 1014.1 1014.0 4.6
27/07:00pm 10.4 3.9 4.5 67 2.6 SW 28 46 15 25 1013.7 1013.7 4.6
27/06:32pm 10.3 4.0 5.7 73 2.1 SW 28 52 15 28 1013.0 1013.0 4.6
27/06:30pm 10.3 4.3 5.5 72 2.2 SW 26 52 14 28 1013.1 1013.1 4.6
27/06:00pm 10.5 3.7 5.3 70 2.4 SSW 30 54 16 29 1012.6 1012.6 4.4
27/05:30pm 12.7 6.4 5.8 63 3.2 SW 28 50 15 27 1011.9 1011.9 4.4
27/05:29pm 12.8 6.5 5.9 63 3.2 SW 28 50 15 27 1011.8 1011.8 4.4
27/05:00pm 12.8 7.4 6.4 65 3.0 SW 24 37 13 20 1011.5 1011.5 4.4
27/04:47pm 12.3 6.2 6.4 67 2.8 SW 28 46 15 25 1011.4 1011.4 4.4
27/04:30pm 12.6 5.6 6.2 65 3.0 SW 32 48 17 26 1011.1 1011.1 4.4
27/04:00pm 12.1 5.5 8.4 78 1.8 SW 33 56 18 30 1010.6 1010.6 4.4
27/03:30pm 13.4 6.7 7.2 66 3.0 SW 32 50 17 27 1010.2 1010.2 4.2
27/03:07pm 12.9 7.2 8.4 74 2.2 SW 28 46 15 25 1009.8 1009.8 4.2
27/03:00pm 13.3 6.9 8.6 73 2.4 SW 32 46 17 25 1009.7 1009.7 4.2
27/02:31pm 11.9 5.4 9.1 83 1.4 SW 33 54 18 29 1009.2 1009.2 4.2
27/02:30pm 11.8 4.9 9.0 83 1.4 SW 35 56 19 30 1009.2 1009.2 4.2
27/02:22pm 11.8 6.4 9.4 85 1.2 WSW 28 56 15 30 1009.1 1009.1 4.2
27/02:00pm 13.3 9.8 8.8 74 2.3 WSW 17 26 9 14 1008.3 1008.3 2.8
27/01:30pm 12.4 8.9 8.9 79 1.8 SW 17 30 9 16 1008.6 1008.6 2.8
27/01:00pm 12.1 7.1 9.5 84 1.3 SW 26 39 14 21 1009.6 1009.6 2.8
27/12:32pm 11.5 6.1 9.4 87 1.1 SW 28 46 15 25 1009.5 1009.5 2.0
27/12:30pm 11.4 5.6 9.3 87 1.1 SW 30 46 16 25 1009.5 1009.5 2.0
27/12:00pm 12.5 6.5 10.0 85 1.3 W 32 56 17 30 1009.0 1009.0 1.0
27/11:47am 15.3 9.5 10.9 75 2.3 WNW 32 65 17 35 1009.0 1009.0 0.8
27/11:30am 14.8 9.5 11.4 80 1.8 WNW 30 44 16 24 1008.8 1008.8 0.6
27/11:00am 16.5 11.0 10.6 68 3.1 WNW 30 48 16 26 1009.3 1009.3 0.6
27/10:53am 16.6 11.1 10.5 67 3.2 WNW 30 48 16 26 1009.3 1009.3 0.6
27/10:30am 16.9 12.6 12.0 73 2.7 WNW 26 39 14 21 1009.7 1009.7 0.6
27/10:00am 15.2 11.4 12.3 83 1.6 NW 24 41 13 22 1010.2 1010.2 0.4
27/09:30am 14.9 10.1 11.7 81 1.7 NW 28 46 15 25 1010.9 1010.9 0.2
27/09:00am 15.3 10.8 11.3 77 2.1 NW 26 39 14 21 1010.9 1010.9 0.4
27/08:30am 16.1 12.4 11.5 74 2.5 NW 22 32 12 17 1011.2 1011.2 0.4
27/08:00am 15.6 11.5 11.4 76 2.3 WNW 24 37 13 20 1011.6 1011.6 0.4
27/07:30am 14.9 10.5 10.5 75 2.3 WNW 24 33 13 18 1011.9 1011.9 0.4
27/07:00am 15.1 12.2 10.9 76 2.2 WNW 17 30 9 16 1012.0 1012.0 0.4
27/06:30am 14.1 11.3 10.1 77 2.1 WNW 15 20 8 11 1012.3 1012.3 0.4
27/06:00am 14.0 10.7 9.4 74 2.4 WNW 17 30 9 16 1012.4 1012.4 0.4
27/05:30am 14.1 10.5 9.7 75 2.3 WNW 19 28 10 15 1012.7 1012.7 0.4
27/05:00am 14.0 11.6 10.2 78 2.0 WNW 13 20 7 11 1013.0 1013.0 0.4
27/04:30am 14.0 11.8 10.8 81 1.7 WNW 13 20 7 11 1013.2 1013.2 0.4
27/04:00am 13.9 10.4 10.3 79 1.9 NW 19 28 10 15 1013.5 1013.5 0.4
27/03:30am 14.0 11.0 10.8 81 1.7 NW 17 26 9 14 1013.6 1013.6 0.4
27/03:00am 14.2 11.6 10.8 80 1.8 NW 15 20 8 11 1014.0 1013.9 0.4
27/02:30am 13.6 11.7 10.4 81 1.7 NW 11 15 6 8 1014.5 1014.4 0.4
27/02:00am 13.4 11.8 10.2 81 1.7 NW 9 13 5 7 1014.8 1014.7 0.4
27/01:30am 13.4 11.7 10.0 80 1.8 WNW 9 15 5 8 1015.4 1015.3 0.4
27/01:00am 14.0 12.5 10.4 79 1.9 W 9 13 5 7 1015.6 1015.5 0.4
27/12:30am 14.1 12.6 10.7 80 1.8 WNW 9 13 5 7 1015.9 1015.8 0.4
27/12:00am 13.9 12.6 11.2 84 1.4 WNW 9 13 5 7 1016.2 1016.1 0.4
 
Date/Time
WST
Temp
°C
App
Temp
°C
Dew
Point
°C
Rel
Hum
%
Delta-T
°C
Wind Press
QNH
hPa
Press
MSL
hPa
Rain since
9am
mm
Dir  Spd
km/h
Gust
km/h
Spd
kts
Gust
kts
26/11:30pm 13.8 12.4 11.0 83 1.5 WNW 9 13 5 7 1016.4 1016.3 0.4
26/11:00pm 14.0 12.7 11.2 83 1.5 WNW 9 13 5 7 1016.8 1016.7 0.4
26/10:30pm 13.8 12.7 10.8 82 1.6 WNW 7 11 4 6 1017.0 1016.9 0.4
26/10:00pm 13.6 12.6 11.1 85 1.3 W 7 11 4 6 1017.3 1017.2 0.4
26/09:30pm 13.4 12.8 11.6 89 1.0 W 6 13 3 7 1017.5 1017.4 0.4
26/09:00pm 12.8 12.5 11.4 91 0.7 W 4 7 2 4 1017.4 1017.3 0.4
26/08:30pm 12.7 12.8 11.4 92 0.7 SW 2 6 1 3 1017.6 1017.5 0.4
26/08:00pm 12.7 12.0 11.3 91 0.7 SSW 6 9 3 5 1017.6 1017.5 0.4
26/07:30pm 13.1 11.9 11.7 91 0.7 SW 9 17 5 9 1017.6 1017.5 0.4
26/07:00pm 13.9 10.7 11.9 88 1.1 W 20 35 11 19 1017.3 1017.2 0.2
26/06:30pm 14.9 13.0 11.7 81 1.7 WNW 13 19 7 10 1016.9 1016.8 0.2
26/06:00pm 14.7 11.1 10.7 77 2.1 W 20 32 11 17 1017.1 1017.0 0.2
26/05:30pm 14.7 12.6 11.3 80 1.8 WNW 13 22 7 12 1017.1 1017.0 0.2
26/05:00pm 16.4 13.6 11.3 72 2.7 W 17 26 9 14 1017.2 1017.1 0.2
26/04:30pm 16.7 13.3 11.2 70 3.0 W 20 33 11 18 1017.3 1017.2 0.2
26/04:00pm 15.5 11.9 10.7 73 2.5 WNW 20 32 11 17 1017.3 1017.2 0.2
26/03:30pm 15.8 11.5 10.8 72 2.7 W 24 37 13 20 1017.3 1017.2 0.2
26/03:00pm 16.5 13.1 11.4 72 2.7 W 20 30 11 16 1017.2 1017.1 0.2
26/02:30pm 17.0 13.3 11.5 70 3.0 WNW 22 35 12 19 1017.3 1017.2 0.2
26/02:00pm 17.3 13.7 12.0 71 2.9 W 22 33 12 18 1017.3 1017.2 0.2
26/01:30pm 16.8 13.7 11.5 71 2.9 WNW 19 32 10 17 1017.4 1017.3 0.2
26/01:00pm 16.7 13.4 11.6 72 2.8 WNW 20 32 11 17 1017.8 1017.7 0.2
26/12:30pm 15.5 12.9 11.9 79 2.0 W 17 24 9 13 1018.0 1017.9 0.2
26/12:00pm 16.3 12.9 11.2 72 2.7 WNW 20 35 11 19 1018.1 1018.0 0.2
26/11:30am 15.9 12.7 11.1 73 2.6 WNW 19 30 10 16 1018.4 1018.3 0.2

Other Formats:

Comma delimited format used in spreadsheet applications
http://www.bom.gov.au/fwo/IDW60801/IDW60801.94604.axf

JavaScript Object Notation format (JSON) in row-major order
http://www.bom.gov.au/fwo/IDW60801/IDW60801.94604.json